Time;durP1;ratioP1;P1;durP2;ratioP2;P2;SDS_P1;SDS_P2;PMS_P1;PMS_P2;Temp;Humidity;BMP_temperature;BMP_pressure;BME280_temperature;BME280_humidity;BME280_pressure;Samples;Min_cycle;Max_cycle;Signal;HPM_P1;HPM_P2
2022/11/02 00:01:41;;;;;;;;;;;;;;;15.97;57.88;101338.66;4959956;28;955;-60
2022/11/02 00:04:06;;;;;;;;;;;;;;;15.89;57.60;101334.44;4960069;28;1983;-60
2022/11/02 00:06:32;;;;;;;;;;;;;;;16.89;58.29;101336.06;4959952;28;1145;-60
2022/11/02 00:08:57;;;;;;;;;;;;;;;17.04;57.72;101332.59;4959940;28;1196;-60
2022/11/02 00:11:23;;;;;;;;;;;;;;;16.41;58.67;101328.44;4959816;28;1161;-60
2022/11/02 00:13:48;;;;;;;;;;;;;;;16.22;58.16;101324.41;4960102;28;928;-61
2022/11/02 00:16:14;;;;;;;;;;;;;;;16.11;57.90;101328.13;4960097;28;1220;-61
2022/11/02 00:18:40;;;;;;;;;;;;;;;16.03;57.45;101311.03;4980365;28;1157;-61
2022/11/02 00:21:05;;;;;;;;;;;;;;;16.46;58.52;101307.63;4988064;28;1172;-60
2022/11/02 00:23:30;;;;;;;;;;;;;;;17.38;57.12;101319.38;4981914;28;1910;-60
2022/11/02 00:25:56;;;;;;;;;;;;;;;16.56;58.41;101315.97;4959133;28;1047;-60
2022/11/02 00:28:21;;;;;;;;;;;;;;;16.26;58.29;101317.31;4959430;28;1227;-60
2022/11/02 00:30:47;;;;;;;;;;;;;;;16.10;57.90;101305.31;4959673;28;1130;-60
2022/11/02 00:33:12;;;;;;;;;;;;;;;15.98;57.70;101302.75;4959573;28;1236;-60
2022/11/02 00:35:38;;;;;;;;;;;;;;;15.97;57.96;101298.34;4958982;28;1208;-60
2022/11/02 00:38:03;;;;;;;;;;;;;;;17.38;57.20;101300.13;4958056;29;1131;-61
2022/11/02 00:40:29;;;;;;;;;;;;;;;16.83;58.25;101295.88;4982217;28;1196;-62
2022/11/02 00:42:54;;;;;;;;;;;;;;;16.33;58.40;101298.72;4953794;29;1138;-60
2022/11/02 00:45:22;;;;;;;;;;;;;;;16.20;57.89;101302.72;4959592;28;1985;-60
2022/11/02 00:47:48;;;;;;;;;;;;;;;16.01;57.90;101296.75;4978244;28;1278;-61
2022/11/02 00:50:13;;;;;;;;;;;;;;;15.95;57.63;101296.94;4958103;29;1260;-60
2022/11/02 00:52:39;;;;;;;;;;;;;;;17.05;57.88;101298.53;4959352;28;1216;-61
2022/11/02 00:55:07;;;;;;;;;;;;;;;16.92;57.93;101288.84;4959143;28;1176;-61
2022/11/02 00:57:34;;;;;;;;;;;;;;;16.41;58.21;101284.53;4957685;28;1465;-60
2022/11/02 00:59:59;;;;;;;;;;;;;;;16.16;58.15;101287.00;4959077;28;1173;-61
2022/11/02 01:02:25;;;;;;;;;;;;;;;16.06;57.67;101288.56;4959090;28;1149;-60
2022/11/02 01:04:50;;;;;;;;;;;;;;;16.07;58.49;101289.38;4958085;28;1979;-60
2022/11/02 01:07:17;;;;;;;;;;;;;;;17.52;57.09;101280.41;4958440;28;1220;-60
2022/11/02 01:09:43;;;;;;;;;;;;;;;16.73;58.12;101280.97;4959098;28;1193;-61
2022/11/02 01:12:08;;;;;;;;;;;;;;;16.37;58.35;101277.91;4959125;28;1161;-60
2022/11/02 01:14:34;;;;;;;;;;;;;;;16.19;57.96;101275.53;4957738;29;1201;-61
2022/11/02 01:16:59;;;;;;;;;;;;;;;16.00;57.75;101273.13;4979013;28;1385;-60
2022/11/02 01:19:25;;;;;;;;;;;;;;;16.32;58.52;101264.13;4955914;28;1423;-61
2022/11/02 01:21:50;;;;;;;;;;;;;;;17.51;56.71;101262.25;4958513;28;1165;-60
2022/11/02 01:24:16;;;;;;;;;;;;;;;16.58;58.37;101264.38;4958135;28;1983;-61
2022/11/02 01:26:42;;;;;;;;;;;;;;;16.33;58.21;101254.81;4983178;28;1231;-60
2022/11/02 01:29:09;;;;;;;;;;;;;;;16.18;57.84;101252.75;4951956;29;1130;-60
2022/11/02 01:31:35;;;;;;;;;;;;;;;16.02;57.82;101249.03;4958353;28;1224;-60
2022/11/02 01:34:02;;;;;;;;;;;;;;;17.01;58.12;101251.53;4958585;28;1172;-60
2022/11/02 01:36:27;;;;;;;;;;;;;;;16.88;57.95;101246.47;4957951;28;1142;-59
2022/11/02 01:38:54;;;;;;;;;;;;;;;16.41;58.26;101251.59;4956769;28;1231;-60
2022/11/02 01:41:19;;;;;;;;;;;;;;;16.21;57.93;101245.91;4958571;28;1236;-60
2022/11/02 01:43:48;;;;;;;;;;;;;;;16.05;57.80;101245.75;4958549;28;1910;-59
2022/11/02 01:46:15;;;;;;;;;;;;;;;15.97;57.39;101240.72;4989347;28;2220;-61
2022/11/02 01:48:42;;;;;;;;;;;;;;;16.39;58.20;101240.03;4942609;29;1083;-61
2022/11/02 01:51:33;;;;;;;;;;;;;;;17.37;56.95;101235.25;4957956;28;1153;-61
2022/11/02 01:53:59;;;;;;;;;;;;;;;16.45;58.54;101226.38;4934839;29;1256;-60
2022/11/02 01:56:26;;;;;;;;;;;;;;;16.20;58.12;101225.88;4980291;28;1176;-61
2022/11/02 01:58:53;;;;;;;;;;;;;;;16.07;57.85;101227.13;4968795;28;1150;-60
2022/11/02 02:01:19;;;;;;;;;;;;;;;16.15;58.33;101225.00;4958108;28;827;-59
2022/11/02 02:03:44;;;;;;;;;;;;;;;17.47;56.97;101222.66;4959652;28;1971;-59
2022/11/02 02:06:11;;;;;;;;;;;;;;;16.66;58.11;101216.38;4967706;28;1598;-59
2022/11/02 02:08:39;;;;;;;;;;;;;;;16.30;58.02;101224.31;4981629;28;1403;-60
2022/11/02 02:11:26;;;;;;;;;;;;;;;16.13;57.79;101227.16;4958100;28;1126;-60
2022/11/02 02:14:04;;;;;;;;;;;;;;;16.02;57.58;101216.09;4957601;28;1216;-60
2022/11/02 02:16:38;;;;;;;;;;;;;;;17.28;57.47;101223.13;4932422;29;1206;-60
2022/11/02 02:19:07;;;;;;;;;;;;;;;16.88;57.66;101228.09;4961946;28;1212;-59
2022/11/02 02:21:38;;;;;;;;;;;;;;;16.47;58.01;101232.44;4976961;28;1459;-59
2022/11/02 02:24:04;;;;;;;;;;;;;;;16.24;57.88;101218.78;4961902;28;1979;-58
2022/11/02 02:26:36;;;;;;;;;;;;;;;16.10;57.77;101222.22;4960264;29;1219;-60
2022/11/02 02:29:04;;;;;;;;;;;;;;;15.94;57.61;101222.06;4980888;28;1195;-60
2022/11/02 02:31:37;;;;;;;;;;;;;;;17.25;57.64;101220.88;4986977;28;1110;-59
2022/11/02 02:34:02;;;;;;;;;;;;;;;16.77;57.97;101216.19;4968407;28;1303;-59
2022/11/02 02:36:32;;;;;;;;;;;;;;;16.36;58.46;101215.88;4961842;28;1240;-59
2022/11/02 02:39:28;;;;;;;;;;;;;;;16.18;57.93;101211.59;4976034;28;1140;-60
2022/11/02 02:41:58;;;;;;;;;;;;;;;16.01;57.51;101222.69;4947825;28;1789;-60
2022/11/02 02:44:24;;;;;;;;;;;;;;;16.03;57.52;101217.78;4980422;28;1909;-59
2022/11/02 02:47:10;;;;;;;;;;;;;;;17.40;57.05;101217.38;4970522;28;1181;-58
2022/11/02 02:49:43;;;;;;;;;;;;;;;16.61;58.19;101217.16;4950715;29;1300;-58
2022/11/02 02:52:09;;;;;;;;;;;;;;;16.22;58.46;101209.97;4960218;29;1266;-58
2022/11/02 02:54:35;;;;;;;;;;;;;;;16.12;57.66;101214.53;4984366;28;1124;-59
2022/11/02 02:57:02;;;;;;;;;;;;;;;15.99;57.40;101216.63;4970927;28;1669;-59
2022/11/02 02:59:32;;;;;;;;;;;;;;;16.96;57.93;101224.03;4985975;28;1157;-58
2022/11/02 03:01:58;;;;;;;;;;;;;;;16.99;57.89;101222.69;4969075;28;1220;-58
2022/11/02 03:04:24;;;;;;;;;;;;;;;16.45;58.41;101220.88;4961100;28;1910;-58
2022/11/02 03:06:53;;;;;;;;;;;;;;;16.20;57.90;101209.44;4961457;28;1256;-58
2022/11/02 03:09:37;;;;;;;;;;;;;;;16.04;57.95;101213.09;4960838;28;1169;-59
2022/11/02 03:12:28;;;;;;;;;;;;;;;16.90;58.04;101205.84;4960122;29;1531;-58
2022/11/02 03:15:26;;;;;;;;;;;;;;;16.98;57.69;101210.84;4947468;29;1171;-58
2022/11/02 03:17:57;;;;;;;;;;;;;;;16.42;57.87;101214.00;4946350;29;1207;-59
2022/11/02 03:20:29;;;;;;;;;;;;;;;16.19;57.70;101204.19;4959740;29;1229;-60
2022/11/02 03:23:07;;;;;;;;;;;;;;;16.06;57.71;101195.31;4959158;29;1505;-60
2022/11/02 03:25:36;;;;;;;;;;;;;;;16.84;58.04;101191.22;4968850;28;1180;-59
2022/11/02 03:28:10;;;;;;;;;;;;;;;16.92;57.83;101189.94;4959004;28;1228;-59
2022/11/02 03:30:39;;;;;;;;;;;;;;;16.37;58.12;101187.34;4959588;29;1153;-59
2022/11/02 03:33:28;;;;;;;;;;;;;;;16.18;57.99;101186.06;4961192;28;1101;-59
2022/11/02 03:36:14;;;;;;;;;;;;;;;16.07;57.41;101187.88;4960436;28;1627;-59
2022/11/02 03:38:42;;;;;;;;;;;;;;;16.42;58.37;101181.91;4953071;29;1134;-59
2022/11/02 03:41:07;;;;;;;;;;;;;;;17.43;56.69;101181.94;4977969;28;1187;-59
2022/11/02 03:43:34;;;;;;;;;;;;;;;16.62;57.86;101185.88;4969207;28;1977;-59
2022/11/02 03:46:00;;;;;;;;;;;;;;;16.28;57.91;101180.66;4967523;28;1256;-59
2022/11/02 03:48:28;;;;;;;;;;;;;;;16.13;57.88;101180.53;4971187;28;1161;-59
2022/11/02 03:50:54;;;;;;;;;;;;;;;15.96;57.51;101173.25;4966942;28;1509;-60
2022/11/02 03:53:31;;;;;;;;;;;;;;;16.04;58.22;101172.78;4958723;29;1868;-60
2022/11/02 03:56:04;;;;;;;;;;;;;;;17.53;56.75;101172.91;4961273;28;1570;-60
2022/11/02 03:58:30;;;;;;;;;;;;;;;16.58;58.23;101179.28;4975142;28;1272;-60
2022/11/02 04:00:57;;;;;;;;;;;;;;;16.26;58.19;101177.38;4960015;28;1161;-59
2022/11/02 04:03:22;;;;;;;;;;;;;;;16.12;57.68;101181.63;4959807;28;1997;-59
2022/11/02 04:05:48;;;;;;;;;;;;;;;15.98;57.66;101168.34;4977521;28;1318;-59
2022/11/02 04:08:24;;;;;;;;;;;;;;;16.65;58.31;101179.84;4981730;28;1265;-57
2022/11/02 04:16:32;;;;;;;;;;;;;;;16.16;57.89;101178.09;4958714;29;1291;-57
2022/11/02 04:25:14;;;;;;;;;;;;;;;16.67;58.38;101169.44;4947582;29;1206;-57
2022/11/02 04:27:16;;;;;;;;;;;;;;;16.41;58.14;101172.00;4957828;29;1392;-60
2022/11/02 04:29:42;;;;;;;;;;;;;;;16.16;57.95;101160.81;4959529;28;1106;-56
2022/11/02 04:32:08;;;;;;;;;;;;;;;16.02;57.72;101163.16;4957596;28;1842;-57
2022/11/02 04:34:33;;;;;;;;;;;;;;;16.02;58.41;101155.75;4957463;28;1271;-57
2022/11/02 04:36:58;;;;;;;;;;;;;;;17.44;57.18;101152.53;4990068;28;1304;-58
2022/11/02 04:39:24;;;;;;;;;;;;;;;16.67;58.12;101154.88;4956275;28;1449;-59
2022/11/02 04:41:50;;;;;;;;;;;;;;;16.32;58.00;101153.53;4957542;28;1422;-58
2022/11/02 04:44:29;;;;;;;;;;;;;;;16.13;58.09;101158.59;4957772;29;1965;-58
2022/11/02 04:47:00;;;;;;;;;;;;;;;15.98;57.86;101154.63;4978172;28;1213;-58
2022/11/02 04:49:29;;;;;;;;;;;;;;;16.34;58.60;101154.09;4957974;29;1228;-58
2022/11/02 04:51:54;;;;;;;;;;;;;;;17.40;56.82;101155.00;4989793;28;1178;-59
2022/11/02 04:54:20;;;;;;;;;;;;;;;16.56;58.10;101153.97;4957674;28;1228;-59
2022/11/02 04:56:51;;;;;;;;;;;;;;;16.22;58.09;101152.34;4955038;29;1440;-58
2022/11/02 04:59:18;;;;;;;;;;;;;;;16.06;57.83;101154.16;4970216;28;1172;-61
2022/11/02 05:01:49;;;;;;;;;;;;;;;15.95;57.50;101154.31;5029759;27;1420788;-59
2022/11/02 05:04:15;;;;;;;;;;;;;;;16.62;58.24;101160.34;5072306;28;1171;-59
2022/11/02 05:06:41;;;;;;;;;;;;;;;17.22;57.12;101163.72;5054974;28;1229;-59
2022/11/02 05:09:07;;;;;;;;;;;;;;;16.49;58.25;101161.63;5055133;28;1368;-59
2022/11/02 05:11:33;;;;;;;;;;;;;;;16.21;57.92;101158.09;5055325;28;1127;-59
2022/11/02 05:13:59;;;;;;;;;;;;;;;16.06;57.82;101162.38;5055337;28;1131;-59
2022/11/02 05:16:26;;;;;;;;;;;;;;;16.45;58.64;101163.22;5055524;28;1356;-59
2022/11/02 05:18:53;;;;;;;;;;;;;;;17.22;57.04;101167.31;5055327;28;1361;-59
2022/11/02 05:21:20;;;;;;;;;;;;;;;16.45;58.22;101163.22;5055156;28;1905;-59
2022/11/02 05:23:47;;;;;;;;;;;;;;;16.16;58.10;101172.63;5055055;28;1350;-59
2022/11/02 05:26:13;;;;;;;;;;;;;;;16.05;57.96;101177.19;5053995;28;1200;-59
2022/11/02 05:28:42;;;;;;;;;;;;;;;15.95;57.63;101170.75;5055236;28;1233;-60
2022/11/02 05:31:08;;;;;;;;;;;;;;;17.18;57.43;101177.19;5072873;28;2054;-59
2022/11/02 05:33:35;;;;;;;;;;;;;;;16.83;57.97;101181.34;5055012;28;1107;-60
2022/11/02 05:36:11;;;;;;;;;;;;;;;16.32;58.11;101178.25;5054981;28;1244;-59
2022/11/02 05:38:39;;;;;;;;;;;;;;;16.11;57.88;101186.28;5054740;28;1232;-59
2022/11/02 05:41:05;;;;;;;;;;;;;;;15.98;57.75;101182.06;5073237;28;1902;-59
2022/11/02 05:43:34;;;;;;;;;;;;;;;16.08;58.15;101187.63;5054922;28;1113;-59
2022/11/02 05:46:01;;;;;;;;;;;;;;;17.44;56.84;101186.31;5054659;28;1165;-59
2022/11/02 05:48:27;;;;;;;;;;;;;;;16.56;58.10;101189.66;5073026;28;1175;-59
2022/11/02 05:50:56;;;;;;;;;;;;;;;16.23;58.15;101180.63;5072825;28;936;-59
2022/11/02 05:53:21;;;;;;;;;;;;;;;16.07;57.89;101190.63;5072425;28;1060;-60
2022/11/02 05:55:47;;;;;;;;;;;;;;;16.04;58.06;101191.97;5072618;28;1105;-59
2022/11/02 05:58:12;;;;;;;;;;;;;;;17.45;56.79;101188.00;5071895;28;1116;-59
2022/11/02 06:00:39;;;;;;;;;;;;;;;16.59;58.03;101187.25;5072196;28;1902;-59
2022/11/02 06:03:04;;;;;;;;;;;;;;;16.31;57.88;101185.63;5072059;28;1096;-59
2022/11/02 06:05:30;;;;;;;;;;;;;;;16.15;57.58;101186.59;5072492;28;1120;-60
2022/11/02 06:07:59;;;;;;;;;;;;;;;15.99;57.30;101182.88;5072323;28;1092;-59
2022/11/02 06:10:25;;;;;;;;;;;;;;;16.56;58.17;101187.78;5072146;28;974;-59
2022/11/02 06:12:55;;;;;;;;;;;;;;;17.25;56.91;101182.41;5060672;28;1124;-59
2022/11/02 06:15:20;;;;;;;;;;;;;;;16.49;58.23;101183.59;5058551;28;1081;-59
2022/11/02 06:17:46;;;;;;;;;;;;;;;16.26;57.77;101193.84;5059248;28;1156;-59
2022/11/02 06:20:11;;;;;;;;;;;;;;;16.11;57.39;101190.94;5058667;28;1984;-59
2022/11/02 06:22:40;;;;;;;;;;;;;;;16.47;58.10;101185.78;5058958;28;1136;-60
2022/11/02 06:25:05;;;;;;;;;;;;;;;17.25;56.49;101194.25;5058481;28;1147;-59
2022/11/02 06:27:31;;;;;;;;;;;;;;;16.51;58.18;101195.97;5058704;28;1190;-59
2022/11/02 06:29:57;;;;;;;;;;;;;;;16.25;57.87;101194.91;5057519;28;1362;-60
2022/11/02 06:32:22;;;;;;;;;;;;;;;16.13;57.59;101194.25;5058424;28;2220;-58
2022/11/02 06:34:47;;;;;;;;;;;;;;;16.90;56.56;101197.59;5057929;28;1108;-60
2022/11/02 06:37:13;;;;;;;;;;;;;;;17.56;54.43;101199.03;5058111;28;1227;-59
2022/11/02 06:39:38;;;;;;;;;;;;;;;17.45;55.39;101193.50;5057170;28;1910;-60
2022/11/02 06:42:04;;;;;;;;;;;;;;;18.80;52.09;101203.56;5057873;28;1219;-59
2022/11/02 06:44:29;;;;;;;;;;;;;;;17.63;53.64;101205.09;5040095;28;1207;-61
2022/11/02 06:46:55;;;;;;;;;;;;;;;17.62;54.16;101203.44;5056119;28;1360;-60
2022/11/02 06:49:20;;;;;;;;;;;;;;;18.59;52.72;101205.53;5057490;28;874;-59
2022/11/02 06:51:45;;;;;;;;;;;;;;;17.54;52.98;101207.53;5057886;28;1154;-59
2022/11/02 06:54:11;;;;;;;;;;;;;;;18.39;53.88;101209.09;5058379;28;1088;-59
2022/11/02 06:56:36;;;;;;;;;;;;;;;18.00;53.41;101206.06;5058257;28;1187;-60
2022/11/02 06:59:02;;;;;;;;;;;;;;;17.65;53.09;101194.66;5057421;28;1175;-60
2022/11/02 07:01:27;;;;;;;;;;;;;;;19.08;52.22;101206.84;5057787;28;2528;-59
2022/11/02 07:03:53;;;;;;;;;;;;;;;17.99;52.78;101194.19;5057210;28;1048;-61
2022/11/02 07:06:18;;;;;;;;;;;;;;;18.97;52.57;101194.19;5057900;28;1140;-58
2022/11/02 07:08:44;;;;;;;;;;;;;;;18.20;54.54;101197.81;5055052;28;1696;-59
2022/11/02 07:11:14;;;;;;;;;;;;;;;17.90;55.25;101198.56;5057725;28;1644;-57
2022/11/02 07:13:39;;;;;;;;;;;;;;;17.66;55.44;101199.06;5057631;28;1391;-58
2022/11/02 07:16:04;;;;;;;;;;;;;;;17.44;55.51;101197.31;5057234;28;1128;-58
2022/11/02 07:18:30;;;;;;;;;;;;;;;17.29;55.40;101202.75;5052474;28;1454;-64
2022/11/02 07:20:57;;;;;;;;;;;;;;;17.15;55.26;101196.09;5057627;28;1934;-62
2022/11/02 07:23:23;;;;;;;;;;;;;;;17.02;55.14;101192.75;5056114;28;1105;-62
2022/11/02 07:25:48;;;;;;;;;;;;;;;16.91;55.22;101193.78;5056252;28;1311;-61
2022/11/02 07:28:14;;;;;;;;;;;;;;;16.77;55.26;101193.38;5050885;28;1350;-60
2022/11/02 07:30:39;;;;;;;;;;;;;;;16.73;55.20;101182.13;5049453;28;1203;-61
2022/11/02 07:33:05;;;;;;;;;;;;;;;16.74;55.06;101189.25;5056420;28;1396;-62
2022/11/02 07:35:30;;;;;;;;;;;;;;;16.74;55.02;101189.25;5056371;28;1438;-61
2022/11/02 07:37:56;;;;;;;;;;;;;;;16.75;58.25;101190.09;5056635;28;1286;-60
2022/11/02 07:40:22;;;;;;;;;;;;;;;16.69;57.43;101177.41;5057030;28;1910;-58
2022/11/02 07:42:47;;;;;;;;;;;;;;;15.60;58.90;101178.34;5054961;28;1370;-57
2022/11/02 07:45:16;;;;;;;;;;;;;;;15.20;58.41;101174.03;5039147;28;1320;-58
2022/11/02 07:47:44;;;;;;;;;;;;;;;14.96;57.96;101166.03;5056068;28;1279;-59
2022/11/02 07:50:13;;;;;;;;;;;;;;;14.91;57.60;101167.88;5056269;28;1151;-59
2022/11/02 07:52:45;;;;;;;;;;;;;;;14.63;57.60;101159.53;5055835;28;1327;-59
2022/11/02 07:55:11;;;;;;;;;;;;;;;14.54;57.36;101164.59;5056114;28;1120;-59
2022/11/02 07:57:36;;;;;;;;;;;;;;;14.45;57.41;101159.78;5055223;28;1402;-57
2022/11/02 08:00:02;;;;;;;;;;;;;;;14.30;57.19;101163.94;5055148;28;1987;-57
2022/11/02 08:02:37;;;;;;;;;;;;;;;14.31;56.85;101154.66;5054543;28;1375;-60
2022/11/02 08:05:02;;;;;;;;;;;;;;;14.17;57.31;101153.31;5055162;28;1238;-59
2022/11/02 08:07:28;;;;;;;;;;;;;;;14.15;56.97;101156.31;5055426;28;1313;-59
2022/11/02 08:09:53;;;;;;;;;;;;;;;14.11;56.84;101155.13;5056475;28;1144;-62
2022/11/02 08:12:19;;;;;;;;;;;;;;;14.03;56.66;101153.66;5052895;28;1312;-57
2022/11/02 08:14:44;;;;;;;;;;;;;;;14.09;56.64;101142.78;5056366;28;1175;-60
2022/11/02 08:17:10;;;;;;;;;;;;;;;14.01;56.88;101141.31;5055659;28;1313;-60
2022/11/02 08:19:35;;;;;;;;;;;;;;;14.09;56.80;101145.53;5056377;28;1902;-58
2022/11/02 08:22:01;;;;;;;;;;;;;;;14.12;57.14;101139.59;5054269;28;1382;-61
2022/11/02 08:24:26;;;;;;;;;;;;;;;13.92;57.24;101135.41;5056600;28;1140;-60
2022/11/02 08:26:52;;;;;;;;;;;;;;;13.90;57.32;101132.09;5055528;28;1309;-60
2022/11/02 08:29:17;;;;;;;;;;;;;;;13.82;57.38;101129.75;5052035;28;946;-61
2022/11/02 08:31:42;;;;;;;;;;;;;;;13.79;57.51;101119.31;5054796;28;973;-61
2022/11/02 08:34:08;;;;;;;;;;;;;;;13.67;57.72;101120.22;5053961;28;1505;-62
2022/11/02 08:36:35;;;;;;;;;;;;;;;13.74;57.61;101121.94;5031415;28;1057;-61
2022/11/02 08:39:00;;;;;;;;;;;;;;;13.77;57.71;101110.56;5051769;28;1473;-61
2022/11/02 08:41:26;;;;;;;;;;;;;;;13.86;57.90;101115.38;5054242;28;1882;-60
2022/11/02 08:43:51;;;;;;;;;;;;;;;13.89;57.94;101108.56;5053300;28;1470;-61
2022/11/02 08:46:16;;;;;;;;;;;;;;;13.77;57.67;101110.56;5053656;28;1076;-63
2022/11/02 08:48:42;;;;;;;;;;;;;;;13.75;57.50;101107.22;5052352;28;1279;-59
2022/11/02 08:51:07;;;;;;;;;;;;;;;15.05;56.32;101108.91;5054498;28;1151;-59
2022/11/02 08:53:33;;;;;;;;;;;;;;;17.13;50.69;101107.63;5050619;28;1427;-56
2022/11/02 08:55:58;;;;;;;;;;;;;;;18.64;48.56;101103.59;5054955;28;1203;-64
2022/11/02 08:58:24;;;;;;;;;;;;;;;19.86;44.46;101098.91;5054865;28;1303;-65
2022/11/02 09:00:51;;;;;;;;;;;;;;;20.67;42.69;101099.22;5055604;28;1906;-59
2022/11/02 09:03:17;;;;;;;;;;;;;;;21.29;41.50;101091.00;5053460;28;1528;-59
2022/11/02 09:05:43;;;;;;;;;;;;;;;20.73;46.22;101089.78;5055469;28;935;-63
2022/11/02 09:08:10;;;;;;;;;;;;;;;16.90;55.07;101091.31;5055221;28;1336;-63
2022/11/02 09:10:35;;;;;;;;;;;;;;;16.10;56.63;101087.78;5053552;28;1299;-61
2022/11/02 09:13:01;;;;;;;;;;;;;;;15.84;56.00;101085.66;5052398;28;1366;-60
2022/11/02 09:15:27;;;;;;;;;;;;;;;15.56;56.00;101084.81;5053129;28;1514;-64
2022/11/02 09:17:53;;;;;;;;;;;;;;;15.42;56.45;101082.75;5051774;28;1298;-65
2022/11/02 09:20:19;;;;;;;;;;;;;;;15.20;57.03;101073.47;5053161;28;1902;-60
2022/11/02 09:22:45;;;;;;;;;;;;;;;15.12;56.95;101075.84;5035756;28;1069;-56
2022/11/02 09:25:10;;;;;;;;;;;;;;;14.84;57.18;101056.66;5039602;28;1521;-61
2022/11/02 09:27:36;;;;;;;;;;;;;;;14.57;57.38;101061.19;5051802;28;1061;-63
2022/11/02 09:30:03;;;;;;;;;;;;;;;14.59;57.41;101051.66;5051900;28;1433;-62
2022/11/02 09:32:32;;;;;;;;;;;;;;;14.53;56.83;101052.66;5053733;28;1045;-60
2022/11/02 09:34:58;;;;;;;;;;;;;;;14.45;56.59;101044.88;5053568;28;1290;-61
2022/11/02 09:37:23;;;;;;;;;;;;;;;14.41;56.55;101043.72;5038071;28;1117;-59
2022/11/02 09:39:49;;;;;;;;;;;;;;;14.42;56.32;101034.44;5055628;28;1879;-59
2022/11/02 09:42:14;;;;;;;;;;;;;;;14.33;55.94;101036.78;5055776;28;1257;-66
2022/11/02 09:44:39;;;;;;;;;;;;;;;14.20;56.10;101030.59;5055756;28;1136;-66
2022/11/02 09:47:08;;;;;;;;;;;;;;;14.13;55.78;101031.81;5053837;28;1298;-64
2022/11/02 09:49:33;;;;;;;;;;;;;;;14.04;55.83;101029.50;5060061;28;1100;-65
2022/11/02 09:51:59;;;;;;;;;;;;;;;14.07;56.27;101017.25;5058720;28;1608;-65
2022/11/02 09:54:25;;;;;;;;;;;;;;;14.02;55.98;101023.47;5041729;28;1144;-65
2022/11/02 09:56:50;;;;;;;;;;;;;;;13.92;55.79;101015.13;5034644;28;1494;-65
2022/11/02 09:59:19;;;;;;;;;;;;;;;13.91;55.70;101013.47;5041845;28;1227;-65
2022/11/02 10:01:56;;;;;;;;;;;;;;;13.83;55.77;101006.50;5058090;28;1917;-63
2022/11/02 10:04:30;;;;;;;;;;;;;;;13.78;55.51;100994.66;5041781;28;1223;-64
2022/11/02 10:07:15;;;;;;;;;;;;;;;13.75;55.45;100993.25;5042415;28;1696;-64
2022/11/02 10:09:49;;;;;;;;;;;;;;;13.68;55.64;100981.66;5061831;28;1067;-64
2022/11/02 10:12:17;;;;;;;;;;;;;;;13.61;55.86;100979.13;5058159;28;1311;-64
2022/11/02 10:14:56;;;;;;;;;;;;;;;13.60;55.93;100977.47;5041401;28;1187;-65
2022/11/02 10:17:23;;;;;;;;;;;;;;;13.57;55.53;100980.69;5057192;28;1352;-63
2022/11/02 10:19:51;;;;;;;;;;;;;;;13.57;55.62;100968.91;5041161;28;1898;-63
2022/11/02 10:22:17;;;;;;;;;;;;;;;13.52;55.51;100961.47;5058585;28;1462;-64
2022/11/02 10:24:43;;;;;;;;;;;;;;;13.44;55.67;100965.44;5058816;28;1100;-61
2022/11/02 10:27:15;;;;;;;;;;;;;;;13.42;55.77;100967.59;5057964;28;1274;-64
2022/11/02 10:29:41;;;;;;;;;;;;;;;13.45;55.53;100955.34;5058760;28;1159;-64
2022/11/02 10:32:10;;;;;;;;;;;;;;;13.40;55.37;100952.53;5057323;28;1458;-62
2022/11/02 10:34:35;;;;;;;;;;;;;;;13.35;55.48;100950.53;5058778;28;1151;-65
2022/11/02 10:37:06;;;;;;;;;;;;;;;13.33;55.37;100942.56;5057182;28;1341;-62
2022/11/02 10:39:34;;;;;;;;;;;;;;;13.27;55.75;100935.34;5058706;28;1124;-63
2022/11/02 10:42:19;;;;;;;;;;;;;;;13.30;55.56;100932.13;5039168;28;1399;-63
2022/11/02 10:44:44;;;;;;;;;;;;;;;13.27;55.32;100937.25;5040978;28;1101;-63
2022/11/02 10:47:10;;;;;;;;;;;;;;;13.24;55.65;100927.66;5057085;28;1457;-60
2022/11/02 10:49:54;;;;;;;;;;;;;;;15.22;52.70;100934.34;5058516;28;1108;-59
2022/11/02 10:52:19;;;;;;;;;;;;;;;17.38;47.62;100937.28;5056572;28;1331;-58
2022/11/02 10:54:47;;;;;;;;;;;;;;;18.78;44.15;100930.28;5058418;28;947;-64
2022/11/02 10:57:13;;;;;;;;;;;;;;;19.73;43.84;100924.59;5037165;28;1478;-57
2022/11/02 10:59:38;;;;;;;;;;;;;;;20.50;42.69;100926.47;5058032;28;1894;-56
2022/11/02 11:02:10;;;;;;;;;;;;;;;21.17;41.70;100917.25;5037010;28;1501;-57
2022/11/02 11:04:36;;;;;;;;;;;;;;;21.90;40.34;100916.81;5058380;28;1127;-57
2022/11/02 11:07:17;;;;;;;;;;;;;;;22.48;39.21;100915.41;5056471;28;1647;-58
2022/11/02 11:09:45;;;;;;;;;;;;;;;23.00;38.67;100914.22;5045119;28;1100;-57
2022/11/02 11:12:30;;;;;;;;;;;;;;;23.39;38.18;100901.63;5055994;28;1477;-58
2022/11/02 11:14:56;;;;;;;;;;;;;;;24.04;37.11;100902.13;5046140;28;1097;-59
2022/11/02 11:17:28;;;;;;;;;;;;;;;24.49;36.61;100901.91;5038177;28;1497;-59
2022/11/02 11:19:54;;;;;;;;;;;;;;;23.65;40.52;100890.66;5056255;28;1968;-58
2022/11/02 11:22:20;;;;;;;;;;;;;;;19.60;49.78;100887.47;5040206;28;1243;-63
2022/11/02 11:24:45;;;;;;;;;;;;;;;18.64;52.30;100887.94;5057071;28;1318;-64
2022/11/02 11:27:11;;;;;;;;;;;;;;;18.11;53.38;100877.47;5055566;28;1056;-62
2022/11/02 11:29:37;;;;;;;;;;;;;;;17.70;53.85;100881.16;5055088;28;1338;-64
2022/11/02 11:32:03;;;;;;;;;;;;;;;17.37;54.03;100872.38;5057141;28;1092;-61
2022/11/02 11:34:29;;;;;;;;;;;;;;;17.03;54.70;100872.97;5027492;28;1370;-61
2022/11/02 11:37:07;;;;;;;;;;;;;;;16.87;54.65;100874.00;5057841;28;1151;-60
2022/11/02 11:39:33;;;;;;;;;;;;;;;16.65;54.65;100869.59;5056312;28;1567;-61
2022/11/02 11:41:58;;;;;;;;;;;;;;;16.51;54.92;100871.19;5039725;28;1972;-63
2022/11/02 11:44:24;;;;;;;;;;;;;;;16.32;54.92;100862.66;5033859;28;1448;-65
2022/11/02 11:46:51;;;;;;;;;;;;;;;16.19;55.10;100851.09;5057858;28;1163;-61
2022/11/02 11:49:25;;;;;;;;;;;;;;;16.05;54.93;100849.94;5056369;28;1457;-60
2022/11/02 11:51:51;;;;;;;;;;;;;;;15.93;54.98;100847.41;5057315;28;1175;-60
2022/11/02 11:54:26;;;;;;;;;;;;;;;15.85;55.78;100843.28;5038361;28;1415;-57
2022/11/02 11:56:52;;;;;;;;;;;;;;;15.89;55.80;100852.63;5056154;28;1520;-60
2022/11/02 11:59:18;;;;;;;;;;;;;;;15.85;56.13;100842.44;5056177;28;1191;-56
2022/11/02 12:01:43;;;;;;;;;;;;;;;15.88;56.37;100847.41;5056314;28;1996;-57
2022/11/02 12:04:09;;;;;;;;;;;;;;;15.97;56.06;100843.03;5057397;28;1132;-62
2022/11/02 12:06:53;;;;;;;;;;;;;;;16.87;56.16;100833.66;5045147;28;1298;-55
2022/11/02 12:09:30;;;;;;;;;;;;;;;19.21;49.01;100835.19;5056963;28;1192;-59
2022/11/02 12:12:02;;;;;;;;;;;;;;;20.96;44.68;100833.00;5056300;28;1291;-58
2022/11/02 12:14:36;;;;;;;;;;;;;;;22.08;42.39;100829.25;5057075;28;1198;-60
2022/11/02 12:17:02;;;;;;;;;;;;;;;23.03;40.25;100825.66;5056354;28;1272;-57
2022/11/02 12:19:36;;;;;;;;;;;;;;;23.70;39.08;100826.69;5056240;28;1034;-58
2022/11/02 12:22:06;;;;;;;;;;;;;;;24.29;38.11;100831.09;5054331;28;1987;-61
2022/11/02 12:24:50;;;;;;;;;;;;;;;24.76;37.37;100827.69;5056787;28;1199;-58
2022/11/02 12:27:34;;;;;;;;;;;;;;;25.24;36.77;100817.50;5053331;28;1309;-64
2022/11/02 12:30:03;;;;;;;;;;;;;;;25.62;36.18;100814.72;5056551;28;1293;-60
2022/11/02 12:32:40;;;;;;;;;;;;;;;25.99;35.79;100811.41;5051455;28;1302;-60
2022/11/02 12:35:12;;;;;;;;;;;;;;;26.39;35.21;100813.78;5056251;28;1183;-59
2022/11/02 12:37:44;;;;;;;;;;;;;;;23.05;44.02;100822.56;5055544;28;1314;-63
2022/11/02 12:40:32;;;;;;;;;;;;;;;20.69;49.84;100840.03;5049534;28;1910;-62
2022/11/02 12:42:58;;;;;;;;;;;;;;;19.86;51.71;100806.38;5042541;28;1477;-60
2022/11/02 12:45:42;;;;;;;;;;;;;;;19.42;52.44;100806.31;5056493;28;1167;-62
2022/11/02 12:48:09;;;;;;;;;;;;;;;19.06;52.93;100806.66;5054652;28;1502;-63
2022/11/02 12:50:41;;;;;;;;;;;;;;;18.81;53.00;100799.41;5038307;28;1332;-64
2022/11/02 12:53:25;;;;;;;;;;;;;;;18.54;53.11;100800.72;5055310;28;1458;-61
2022/11/02 12:55:51;;;;;;;;;;;;;;;18.26;53.29;100791.25;5056785;28;1194;-67
2022/11/02 12:58:21;;;;;;;;;;;;;;;17.61;54.45;100795.66;5037776;28;1534;-66
2022/11/02 13:00:47;;;;;;;;;;;;;;;17.02;55.29;100799.06;5055402;28;1922;-63
2022/11/02 13:03:12;;;;;;;;;;;;;;;16.61;55.65;100799.84;5037277;28;1310;-65
2022/11/02 13:05:38;;;;;;;;;;;;;;;16.16;56.19;100787.69;5055607;28;1058;-67